Time;durP1;ratioP1;P1;durP2;ratioP2;P2;SDS_P1;SDS_P2;PMS_P1;PMS_P2;Temp;Humidity;BMP_temperature;BMP_pressure;BME280_temperature;BME280_humidity;BME280_pressure;Samples;Min_cycle;Max_cycle;Signal;HPM_P1;HPM_P2
2023/11/21 00:02:29;;;;;;;42.10;21.50;;;;;;;4.52;100.00;98565.29;436423;1251;140831;-61
2023/11/21 00:12:36;;;;;;;40.40;23.80;;;;;;;4.35;100.00;98573.30;435908;1251;139646;-61
2023/11/21 00:22:42;;;;;;;34.90;21.20;;;;;;;4.16;100.00;98585.22;436016;1250;139472;-59
2023/11/21 00:32:49;;;;;;;33.30;20.60;;;;;;;4.08;100.00;98594.98;435763;1253;139297;-61
2023/11/21 00:42:55;;;;;;;38.10;19.90;;;;;;;3.96;100.00;98608.45;435596;1251;139513;-61
2023/11/21 00:53:03;;;;;;;36.70;20.20;;;;;;;3.89;100.00;98617.96;435898;1254;139943;-60
2023/11/21 01:03:08;;;;;;;;;;;;;;;3.79;100.00;98620.44;435817;1253;140520;-60
2023/11/21 01:13:16;;;;;;;36.30;18.90;;;;;;;3.65;100.00;98620.11;435651;1251;126035;-61
2023/11/21 01:23:23;;;;;;;39.30;19.50;;;;;;;3.60;100.00;98624.33;436230;1254;139685;-62
2023/11/21 01:33:29;;;;;;;48.50;23.40;;;;;;;3.56;100.00;98618.14;435730;1251;139516;-60
2023/11/21 01:43:35;;;;;;;35.70;21.60;;;;;;;3.48;100.00;98633.07;435361;1253;140862;-60
2023/11/21 01:53:44;;;;;;;26.00;19.00;;;;;;;3.42;100.00;98634.56;435822;1251;139585;-60
2023/11/21 02:03:50;;;;;;;29.60;18.10;;;;;;;3.34;100.00;98647.05;436059;1252;139911;-60
2023/11/21 02:13:56;;;;;;;27.80;19.20;;;;;;;3.32;100.00;98648.20;436256;1251;139544;-61
2023/11/21 02:24:03;;;;;;;25.90;18.30;;;;;;;3.26;100.00;98647.10;435756;1254;140553;-61
2023/11/21 02:34:09;;;;;;;27.90;17.90;;;;;;;3.18;100.00;98649.91;436625;1251;141008;-60
2023/11/21 02:44:15;;;;;;;25.30;16.80;;;;;;;3.12;100.00;98657.47;435909;1251;140292;-60
2023/11/21 02:54:22;;;;;;;29.00;19.10;;;;;;;3.07;100.00;98663.23;435717;1250;139536;-60
2023/11/21 03:04:28;;;;;;;24.20;17.40;;;;;;;3.02;100.00;98668.16;435628;1251;140703;-60
2023/11/21 03:14:34;;;;;;;31.50;20.40;;;;;;;2.93;100.00;98673.92;435850;1251;139428;-61
2023/11/21 03:24:40;;;;;;;30.50;20.70;;;;;;;2.85;100.00;98682.10;435799;1253;140189;-61
2023/11/21 03:34:58;;;;;;;33.10;24.00;;;;;;;2.75;100.00;98686.33;435668;1253;140427;-61
2023/11/21 03:45:06;;;;;;;36.50;21.40;;;;;;;2.71;100.00;98699.29;436041;1250;139656;-60
2023/11/21 03:55:13;;;;;;;34.60;22.60;;;;;;;2.65;100.00;98706.13;436188;1249;141198;-61
2023/11/21 04:05:21;;;;;;;33.40;20.10;;;;;;;2.62;100.00;98708.52;435340;1251;140628;-59
2023/11/21 04:15:27;;;;;;;31.00;20.20;;;;;;;2.60;100.00;98722.97;437134;1250;140674;-61
2023/11/21 04:25:34;;;;;;;27.40;18.20;;;;;;;2.51;100.00;98723.68;439174;1250;139699;-60
2023/11/21 04:35:40;;;;;;;24.40;15.90;;;;;;;2.43;100.00;98729.58;436233;1253;139545;-60
2023/11/21 04:45:46;;;;;;;32.00;18.80;;;;;;;2.37;100.00;98737.07;435915;1253;140153;-61
2023/11/21 04:55:52;;;;;;;28.10;17.10;;;;;;;2.30;100.00;98747.60;436028;1253;139730;-61
2023/11/21 05:06:00;;;;;;;30.30;18.60;;;;;;;2.18;100.00;98760.36;436255;1253;140531;-60
2023/11/21 05:16:07;;;;;;;28.90;18.20;;;;;;;2.02;100.00;98762.23;435982;1250;140418;-61
2023/11/21 05:26:13;;;;;;;29.50;18.20;;;;;;;1.94;100.00;98767.42;436207;1251;139800;-60
2023/11/21 05:36:20;;;;;;;27.80;16.30;;;;;;;1.86;100.00;98770.14;436408;1253;139810;-60
2023/11/21 05:46:26;;;;;;;28.40;17.40;;;;;;;1.70;100.00;98785.28;436324;1250;139391;-61
2023/11/21 05:56:32;;;;;;;24.60;15.30;;;;;;;1.60;100.00;98788.47;436275;1253;139878;-61
2023/11/21 06:06:39;;;;;;;30.10;16.70;;;;;;;1.54;100.00;98797.16;436991;1251;141373;-61
2023/11/21 06:16:46;;;;;;;27.40;18.30;;;;;;;1.44;100.00;98813.05;436127;1253;140294;-61
2023/11/21 06:26:52;;;;;;;19.60;14.20;;;;;;;1.31;100.00;98834.08;437831;1249;139164;-60
2023/11/21 06:36:58;;;;;;;18.40;12.40;;;;;;;1.18;100.00;98838.20;436779;1251;140490;-61
2023/11/21 06:47:05;;;;;;;23.40;15.20;;;;;;;1.06;100.00;98850.02;435880;1249;140379;-59
2023/11/21 06:57:11;;;;;;;17.10;12.90;;;;;;;0.93;100.00;98861.33;436334;1253;139198;-60
2023/11/21 07:07:19;;;;;;;25.00;17.40;;;;;;;0.72;100.00;98882.23;436009;1250;139363;-60
2023/11/21 07:17:25;;;;;;;17.60;14.80;;;;;;;0.65;100.00;98904.36;436070;1249;140426;-60
2023/11/21 07:27:33;;;;;;;19.00;14.90;;;;;;;0.56;100.00;98916.20;436005;1250;139297;-60
2023/11/21 07:37:40;;;;;;;16.10;11.30;;;;;;;0.44;100.00;98919.00;437016;1251;139480;-60
2023/11/21 07:47:46;;;;;;;15.20;10.50;;;;;;;0.36;100.00;98928.89;436028;1252;140386;-62
2023/11/21 07:57:53;;;;;;;10.60;8.50;;;;;;;0.30;100.00;98930.09;436359;1249;139204;-67
2023/11/21 08:07:59;;;;;;;9.70;7.90;;;;;;;0.23;100.00;98944.47;435906;1254;140935;-66
2023/11/21 08:18:07;;;;;;;8.60;6.20;;;;;;;0.16;100.00;98955.52;436521;1249;139565;-70
2023/11/21 08:28:16;;;;;;;8.20;6.70;;;;;;;0.10;100.00;98950.55;436152;1251;139783;-70
2023/11/21 08:38:22;;;;;;;9.70;7.80;;;;;;;0.08;100.00;98958.35;436329;1250;138955;-75
2023/11/21 08:48:29;;;;;;;9.60;8.30;;;;;;;0.06;100.00;98975.96;438422;1253;139232;-65
2023/11/21 08:58:36;;;;;;;9.40;8.40;;;;;;;-0.06;100.00;98993.04;435900;1250;139210;-67
2023/11/21 09:08:43;;;;;;;10.50;9.40;;;;;;;-0.06;100.00;99000.77;436124;1253;139105;-62
2023/11/21 09:18:48;;;;;;;;;;;;;;;-0.00;100.00;99007.48;435743;1253;139571;-69
2023/11/21 09:28:56;;;;;;;10.40;8.80;;;;;;;-0.05;100.00;99011.75;435875;1254;127693;-79
2023/11/21 09:39:05;;;;;;;9.20;8.30;;;;;;;-0.03;100.00;99011.67;437597;1253;139350;-65
2023/11/21 09:49:14;;;;;;;12.00;10.40;;;;;;;0.05;100.00;99015.77;436067;1250;140325;-68
2023/11/21 09:59:21;;;;;;;11.20;8.20;;;;;;;0.04;100.00;99018.02;435827;1250;139396;-63
2023/11/21 10:09:29;;;;;;;10.90;8.40;;;;;;;0.01;100.00;99022.93;437535;1252;139080;-72
2023/11/21 10:19:36;;;;;;;8.90;8.00;;;;;;;-0.07;100.00;99025.56;436418;1253;139963;-70
2023/11/21 10:29:43;;;;;;;10.40;9.00;;;;;;;-0.07;100.00;99027.98;436341;1253;140029;-75
2023/11/21 10:39:50;;;;;;;10.20;8.30;;;;;;;-0.03;100.00;99032.50;435981;1253;139361;-68
2023/11/21 10:49:56;;;;;;;11.80;8.70;;;;;;;-0.07;100.00;99039.51;435865;1251;140558;-65
2023/11/21 11:00:03;;;;;;;9.20;8.30;;;;;;;-0.04;100.00;99052.16;435931;1253;139948;-67
2023/11/21 11:10:14;;;;;;;9.20;7.90;;;;;;;-0.06;100.00;99063.75;439381;1250;140237;-71
2023/11/21 11:20:21;;;;;;;10.30;7.20;;;;;;;-0.17;100.00;99067.67;436036;1251;139488;-66
2023/11/21 11:30:41;;;;;;;8.90;7.90;;;;;;;-0.29;100.00;99065.41;436028;1253;140411;-68
2023/11/21 11:40:53;;;;;;;9.20;8.30;;;;;;;-0.34;100.00;99071.41;437031;1250;140938;-70
2023/11/21 11:51:09;;;;;;;10.10;9.10;;;;;;;-0.29;100.00;99077.98;435964;1253;186300;-66
2023/11/21 12:01:17;;;;;;;10.00;9.10;;;;;;;-0.28;100.00;99085.86;435943;1251;140482;-71
2023/11/21 12:11:31;;;;;;;8.30;7.50;;;;;;;-0.47;100.00;99101.00;436663;1252;139843;-67
2023/11/21 12:21:40;;;;;;;9.80;8.80;;;;;;;-0.63;100.00;99098.48;435955;1251;139263;-73
2023/11/21 12:31:50;;;;;;;8.00;7.20;;;;;;;-0.81;100.00;99105.98;437927;1253;139583;-64
2023/11/21 12:41:56;;;;;;;9.70;8.30;;;;;;;-0.94;100.00;99115.25;436280;1251;139966;-67
2023/11/21 12:52:03;;;;;;;;;;;;;;;-1.06;100.00;99109.86;436170;1254;139165;-71
2023/11/21 13:02:10;;;;;;;13.50;12.10;;;;;;;-0.99;100.00;99120.33;438439;1251;126059;-77
2023/11/21 13:12:18;;;;;;;13.30;11.20;;;;;;;-0.95;100.00;99136.23;438459;1250;141068;-65
2023/11/21 13:22:25;;;;;;;17.90;13.80;;;;;;;-0.95;100.00;99157.52;436870;1252;139912;-73
2023/11/21 13:32:32;;;;;;;21.50;13.80;;;;;;;-1.02;100.00;99177.46;439442;1254;140018;-66
2023/11/21 13:42:38;;;;;;;22.50;14.60;;;;;;;-1.10;100.00;99194.46;436387;1254;140526;-72
2023/11/21 13:52:43;;;;;;;;;;;;;;;-1.20;100.00;99215.65;436133;1254;139499;-73
2023/11/21 14:02:51;;;;;;;15.60;14.00;;;;;;;-1.30;100.00;99233.71;436599;1254;127367;-71
2023/11/21 14:12:58;;;;;;;19.00;15.80;;;;;;;-1.44;100.00;99255.64;436630;1253;140008;-72
2023/11/21 14:23:05;;;;;;;18.60;15.50;;;;;;;-1.47;100.00;99273.05;435921;1253;140600;-70
2023/11/21 14:33:12;;;;;;;19.40;17.20;;;;;;;-1.50;100.00;99277.41;436084;1253;140587;-66
2023/11/21 14:43:19;;;;;;;19.90;17.50;;;;;;;-1.60;100.00;99286.86;436021;1253;140284;-72
2023/11/21 14:53:42;;;;;;;26.30;20.20;;;;;;;-1.73;100.00;99293.61;439690;1251;139812;-79
2023/11/21 15:03:50;;;;;;;22.90;18.20;;;;;;;-1.81;100.00;99305.27;439885;1256;139725;-73
2023/11/21 15:13:56;;;;;;;22.00;17.20;;;;;;;-1.87;100.00;99326.48;436229;1254;139659;-67
2023/11/21 15:24:03;;;;;;;24.10;19.80;;;;;;;-1.95;100.00;99330.21;436668;1253;139708;-68
2023/11/21 15:34:09;;;;;;;22.60;18.40;;;;;;;-2.03;100.00;99337.91;436536;1253;140953;-69
2023/11/21 15:44:16;;;;;;;25.40;20.60;;;;;;;-2.08;100.00;99350.50;437769;1254;139971;-66
2023/11/21 15:54:24;;;;;;;27.10;20.30;;;;;;;-2.12;100.00;99357.42;436751;1253;139902;-73
2023/11/21 16:04:30;;;;;;;22.10;17.80;;;;;;;-2.18;100.00;99371.93;436068;1253;140283;-68
2023/11/21 16:14:41;;;;;;;19.20;15.90;;;;;;;-2.25;100.00;99402.38;435990;1251;140048;-69
2023/11/21 16:24:48;;;;;;;21.50;18.90;;;;;;;-2.27;100.00;99420.05;435996;1253;139618;-69
2023/11/21 16:34:56;;;;;;;19.60;16.20;;;;;;;-2.26;100.00;99433.10;435847;1255;139585;-68
2023/11/21 16:45:03;;;;;;;19.10;15.30;;;;;;;-2.30;100.00;99435.20;435809;1250;139824;-69
2023/11/21 16:55:09;;;;;;;20.40;17.90;;;;;;;-2.35;100.00;99450.52;436174;1253;140184;-70
2023/11/21 17:05:16;;;;;;;23.20;19.30;;;;;;;-2.36;100.00;99463.06;436067;1253;140474;-70
2023/11/21 17:15:23;;;;;;;21.70;19.30;;;;;;;-2.33;100.00;99469.02;435964;1252;141084;-66
2023/11/21 17:25:29;;;;;;;21.20;17.10;;;;;;;-2.30;100.00;99475.33;435415;1253;140652;-66
2023/11/21 17:35:36;;;;;;;20.10;16.60;;;;;;;-2.30;100.00;99482.70;436226;1251;140055;-66
2023/11/21 17:45:42;;;;;;;16.40;14.50;;;;;;;-2.34;100.00;99495.77;436664;1255;139776;-65
2023/11/21 17:55:48;;;;;;;21.20;17.80;;;;;;;-2.37;100.00;99513.48;437082;1254;140710;-66
2023/11/21 18:05:55;;;;;;;21.60;18.40;;;;;;;-2.40;100.00;99516.77;436026;1253;141482;-65
2023/11/21 18:16:01;;;;;;;21.80;18.50;;;;;;;-2.44;100.00;99527.95;436114;1254;141013;-65
2023/11/21 18:26:08;;;;;;;19.80;17.50;;;;;;;-2.50;100.00;99539.69;436118;1254;140287;-65
2023/11/21 18:36:15;;;;;;;21.80;17.60;;;;;;;-2.52;100.00;99550.34;436276;1254;140046;-66
2023/11/21 18:46:21;;;;;;;25.80;22.10;;;;;;;-2.56;100.00;99570.09;436417;1254;141382;-64
2023/11/21 18:56:30;;;;;;;29.40;21.50;;;;;;;-2.60;100.00;99574.59;436364;1256;139751;-66
2023/11/21 19:06:36;;;;;;;26.80;23.00;;;;;;;-2.62;100.00;99591.91;436572;1253;141412;-65
2023/11/21 19:16:42;;;;;;;21.80;19.50;;;;;;;-2.63;100.00;99602.55;436035;1253;140061;-66
2023/11/21 19:26:49;;;;;;;23.90;20.20;;;;;;;-2.67;100.00;99612.88;436116;1254;140826;-65
2023/11/21 19:36:57;;;;;;;23.90;19.60;;;;;;;-2.72;100.00;99632.30;435827;1254;139758;-65
2023/11/21 19:47:06;;;;;;;29.30;20.80;;;;;;;-2.79;100.00;99652.23;435719;1254;141074;-65
2023/11/21 19:57:14;;;;;;;25.70;21.70;;;;;;;-2.82;100.00;99675.20;436267;1253;139736;-65
2023/11/21 20:07:23;;;;;;;22.90;19.80;;;;;;;-2.85;100.00;99681.06;436333;1253;141411;-65
2023/11/21 20:17:29;;;;;;;26.40;21.90;;;;;;;-2.82;100.00;99697.66;435890;1253;139799;-65
2023/11/21 20:27:36;;;;;;;24.20;18.60;;;;;;;-2.82;100.00;99715.83;436075;1251;141041;-65
2023/11/21 20:37:42;;;;;;;22.10;18.10;;;;;;;-2.84;100.00;99732.80;435972;1253;140292;-65
2023/11/21 20:47:49;;;;;;;21.90;18.60;;;;;;;-2.86;100.00;99746.86;435998;1251;141657;-65
2023/11/21 20:57:59;;;;;;;23.40;18.10;;;;;;;-2.88;100.00;99761.62;436161;1254;139847;-65
2023/11/21 21:08:06;;;;;;;21.50;18.70;;;;;;;-2.89;100.00;99766.59;436539;1250;140654;-65
2023/11/21 21:18:12;;;;;;;31.80;22.70;;;;;;;-2.85;100.00;99785.23;436056;1253;140055;-65
2023/11/21 21:28:19;;;;;;;23.70;20.30;;;;;;;-2.85;100.00;99796.02;435707;1251;140393;-65
2023/11/21 21:38:30;;;;;;;23.50;19.10;;;;;;;-2.87;100.00;99811.80;436720;1251;139780;-67
2023/11/21 21:48:36;;;;;;;21.50;17.20;;;;;;;-2.87;100.00;99830.98;435897;1251;139772;-66
2023/11/21 21:58:43;;;;;;;22.00;17.50;;;;;;;-2.88;100.00;99841.11;436177;1254;140097;-64
2023/11/21 22:08:49;;;;;;;17.00;13.90;;;;;;;-2.92;100.00;99860.65;436098;1253;139603;-66
2023/11/21 22:18:56;;;;;;;22.10;14.40;;;;;;;-2.93;100.00;99872.98;436933;1251;140968;-65
2023/11/21 22:29:04;;;;;;;15.40;12.20;;;;;;;-2.95;100.00;99873.34;436647;1253;141100;-66
2023/11/21 22:39:11;;;;;;;17.80;12.00;;;;;;;-2.99;100.00;99882.09;436433;1253;140705;-66
2023/11/21 22:49:17;;;;;;;14.90;10.50;;;;;;;-3.03;100.00;99891.19;436061;1251;139683;-64
2023/11/21 22:59:23;;;;;;;14.40;9.90;;;;;;;-3.10;100.00;99905.08;435922;1251;139984;-65
2023/11/21 23:09:30;;;;;;;15.00;11.60;;;;;;;-3.13;100.00;99922.23;436278;1251;139641;-71
2023/11/21 23:19:37;;;;;;;10.90;9.60;;;;;;;-3.14;100.00;99924.96;435686;1249;139885;-64
2023/11/21 23:29:54;;;;;;;10.60;8.90;;;;;;;-3.17;100.00;99928.05;438321;1253;139841;-65
2023/11/21 23:40:06;;;;;;;11.50;9.10;;;;;;;-3.27;100.00;99934.06;436191;1253;140183;-65
2023/11/21 23:50:13;;;;;;;11.00;8.60;;;;;;;-3.43;100.00;99948.64;436878;1250;195248;-64
